Terminal Aerodrome Forecast
Issued by NWS Albany, NY

Home | Current Version | Previous Version | Text Only | Print | Product List | Glossary On
Versions: 1 2 3 4 5 6 7 8 9 10 11 12 13 14 15 16
000
FTUS41 KALY 041136
TAFGFL
TAF
KGFL 041136Z 0412/0512 00000KT P6SM SKC
     FM041500 20010G18KT P6SM SCT100
     FM041800 23014G22KT P6SM SCT080 SCT250
     FM042100 21010G18KT P6SM SCT080 BKN250
     FM050400 20007KT P6SM VCSH BKN050 OVC080
     FM050900 33009KT P6SM SCT025 OVC050=

USA.gov is the U.S. government's official web portal to all federal, state and local government web resources and services.